createdAt,value
2022-09-29T00:01:01.720Z,23
2022-09-29T00:03:34.301Z,24.6
2022-09-29T00:04:50.603Z,23
2022-09-29T00:06:06.886Z,23
2022-09-29T00:07:23.179Z,21.5
2022-09-29T00:08:39.479Z,23.4
2022-09-29T00:09:55.776Z,20.7
2022-09-29T00:11:12.066Z,22.5
2022-09-29T00:12:27.382Z,22.5
2022-09-29T00:13:43.674Z,23.1
2022-09-29T00:14:59.961Z,19.3
2022-09-29T00:18:48.858Z,20.9
2022-09-29T00:20:04.159Z,22.4
2022-09-29T00:21:19.478Z,23.5
2022-09-29T00:22:35.771Z,21.3
2022-09-29T00:23:52.063Z,22.8
2022-09-29T00:25:08.354Z,22.1
2022-09-29T00:26:24.659Z,23
2022-09-29T00:27:40.943Z,23.8
2022-09-29T00:28:57.250Z,21.6
2022-09-29T00:30:13.536Z,23.2
2022-09-29T00:31:29.837Z,24
2022-09-29T00:32:46.123Z,22.6
2022-09-29T00:34:01.449Z,25.3
2022-09-29T00:35:16.753Z,24.7
2022-09-29T00:36:33.047Z,24.8
2022-09-29T00:37:49.339Z,26.3
2022-09-29T00:39:05.643Z,28
2022-09-29T00:40:21.921Z,27
2022-09-29T00:41:38.225Z,27.4
2022-09-29T00:42:54.515Z,25.3
2022-09-29T00:44:10.808Z,28
2022-09-29T00:45:26.125Z,26.6
2022-09-29T00:46:42.415Z,26.4
2022-09-29T00:49:15.016Z,26.4
2022-09-29T00:50:31.297Z,24.5
2022-09-29T00:51:47.607Z,26.4
2022-09-29T00:53:03.886Z,28.7
2022-09-29T00:54:20.202Z,29.7
2022-09-29T00:55:36.487Z,26.1
2022-09-29T00:56:52.776Z,30.8
2022-09-29T00:58:09.066Z,28.8
2022-09-29T00:59:25.359Z,29.3
2022-09-29T01:00:41.666Z,30.9
2022-09-29T01:01:56.964Z,32.3
2022-09-29T01:03:13.263Z,33
2022-09-29T01:04:29.568Z,35.7
2022-09-29T01:05:45.857Z,31.6
2022-09-29T01:07:02.160Z,33.4
2022-09-29T01:08:18.449Z,33.3
2022-09-29T01:09:34.737Z,33.7
2022-09-29T01:10:51.043Z,35.2
2022-09-29T01:12:07.321Z,36.7
2022-09-29T01:13:23.615Z,35.5
2022-09-29T01:14:39.928Z,35.8
2022-09-29T01:15:56.223Z,38
2022-09-29T01:17:12.501Z,36.5
2022-09-29T01:18:27.809Z,37.5
2022-09-29T01:19:44.106Z,39.5
2022-09-29T01:21:00.410Z,38.7
2022-09-29T01:22:16.693Z,36.7
2022-09-29T01:23:32.992Z,38.2
2022-09-29T01:24:49.294Z,41.4
2022-09-29T01:26:05.595Z,40.5
2022-09-29T01:27:21.875Z,43.4
2022-09-29T01:28:38.172Z,43.1
2022-09-29T01:29:54.462Z,41.1
2022-09-29T01:31:10.770Z,42.1
2022-09-29T01:32:27.068Z,38.2
2022-09-29T01:33:43.355Z,42.3
2022-09-29T01:34:58.657Z,39.3
2022-09-29T01:36:14.966Z,44.9
2022-09-29T01:37:31.261Z,43.1
2022-09-29T01:38:47.548Z,45.2
2022-09-29T01:40:03.833Z,39.2
2022-09-29T01:41:20.129Z,43.8
2022-09-29T01:42:36.432Z,45.8
2022-09-29T01:43:52.730Z,48.4
2022-09-29T01:45:09.027Z,48.9
2022-09-29T01:46:25.306Z,46.6
2022-09-29T01:47:41.613Z,46.5
2022-09-29T01:48:57.899Z,46.4
2022-09-29T01:50:14.208Z,50.2
2022-09-29T01:51:29.499Z,48
2022-09-29T01:52:45.801Z,50.5
2022-09-29T01:54:02.091Z,50.2
2022-09-29T01:55:18.388Z,47.2
2022-09-29T01:56:34.682Z,48.2
2022-09-29T01:57:50.986Z,48.6
2022-09-29T01:59:07.283Z,47.3
2022-09-29T02:00:23.561Z,46.5
2022-09-29T02:01:39.867Z,48.3
2022-09-29T02:02:56.157Z,48.6
2022-09-29T02:04:12.455Z,51.7
2022-09-29T02:05:28.748Z,49
2022-09-29T02:06:45.034Z,49.2
2022-09-29T02:08:00.344Z,49.2
2022-09-29T02:09:16.647Z,48
2022-09-29T02:10:32.942Z,46.6
2022-09-29T02:11:49.245Z,47.7
2022-09-29T02:13:05.531Z,47.7
2022-09-29T02:14:21.831Z,45.9
2022-09-29T02:15:38.122Z,50
2022-09-29T02:16:54.406Z,50.3
2022-09-29T02:18:10.721Z,50.2
2022-09-29T02:19:27.004Z,49.9
2022-09-29T02:20:43.305Z,47.6
2022-09-29T02:21:59.603Z,48.4
2022-09-29T02:23:15.885Z,53.7
2022-09-29T02:24:32.177Z,51.8
2022-09-29T02:25:47.486Z,47.4
2022-09-29T02:27:03.789Z,48.4
2022-09-29T02:28:20.091Z,49.2
2022-09-29T02:29:36.375Z,51.7
2022-09-29T02:30:52.667Z,50
2022-09-29T02:32:08.975Z,50.4
2022-09-29T02:33:25.265Z,46.8
2022-09-29T02:34:41.550Z,49.8
2022-09-29T02:35:57.840Z,46.7
2022-09-29T02:37:14.142Z,47.5
2022-09-29T02:38:30.444Z,48.5
2022-09-29T02:39:46.737Z,48.8
2022-09-29T02:41:03.031Z,50.4
2022-09-29T02:43:34.639Z,52.6
2022-09-29T02:44:50.928Z,47.2
2022-09-29T02:46:07.221Z,53.8
2022-09-29T02:47:23.518Z,48.5
2022-09-29T02:48:39.803Z,50.1
2022-09-29T02:51:12.397Z,49.7
2022-09-29T02:52:28.699Z,49.8
2022-09-29T02:53:44.988Z,46.6
2022-09-29T02:55:01.281Z,46.3
2022-09-29T02:56:17.575Z,46.9
2022-09-29T02:57:33.868Z,49.7
2022-09-29T02:58:49.173Z,48.6
2022-09-29T03:00:05.485Z,47.2
2022-09-29T03:01:21.773Z,46.8
2022-09-29T03:02:38.065Z,54.4
2022-09-29T03:03:54.352Z,48.2
2022-09-29T03:05:10.659Z,47.2
2022-09-29T03:06:26.953Z,53.3
2022-09-29T03:07:43.245Z,51.3
2022-09-29T03:08:59.550Z,46
2022-09-29T03:10:15.834Z,52.5
2022-09-29T03:11:32.130Z,51
2022-09-29T03:14:04.715Z,47.3
2022-09-29T03:15:20.018Z,48.9
2022-09-29T03:16:36.320Z,47.8
2022-09-29T03:17:52.628Z,48.8
2022-09-29T03:19:08.910Z,55.9
2022-09-29T03:20:25.197Z,50.2
2022-09-29T03:21:41.495Z,49.2
2022-09-29T03:22:57.801Z,48.6
2022-09-29T03:24:14.088Z,54.3
2022-09-29T03:25:30.382Z,51.9
2022-09-29T03:26:46.685Z,46.4
2022-09-29T03:28:02.983Z,54.2
2022-09-29T03:29:19.275Z,49.6
2022-09-29T03:30:35.554Z,50
2022-09-29T03:31:50.868Z,51
2022-09-29T03:33:07.177Z,54.7
2022-09-29T03:34:23.473Z,54
2022-09-29T03:35:39.752Z,50.1
2022-09-29T03:36:56.042Z,51.6
2022-09-29T03:38:12.349Z,52.7
2022-09-29T03:39:28.649Z,54.4
2022-09-29T03:40:44.938Z,51.4
2022-09-29T03:42:01.238Z,51.3
2022-09-29T03:43:17.515Z,54.9
2022-09-29T03:44:33.828Z,53.4
2022-09-29T03:45:50.107Z,56.9
2022-09-29T03:47:06.411Z,54.2
2022-09-29T03:48:21.718Z,54.7
2022-09-29T03:49:38.025Z,56.5
2022-09-29T03:50:54.315Z,57.1
2022-09-29T03:52:10.601Z,59.7
2022-09-29T03:53:26.907Z,56.4
2022-09-29T03:54:43.196Z,60.2
2022-09-29T03:55:59.496Z,58.6
2022-09-29T03:57:15.775Z,57.2
2022-09-29T03:58:32.070Z,65.1
2022-09-29T03:59:48.372Z,68
2022-09-29T04:01:04.670Z,59.1
2022-09-29T04:02:20.966Z,59.7
2022-09-29T04:03:37.258Z,68.9
2022-09-29T04:04:52.572Z,61.7
2022-09-29T04:07:25.146Z,65.3
2022-09-29T04:08:41.447Z,67
2022-09-29T04:09:57.740Z,62.9
2022-09-29T04:11:14.037Z,60.6
2022-09-29T04:12:30.328Z,73.7
2022-09-29T04:15:02.930Z,64.8
2022-09-29T04:16:19.223Z,59.4
2022-09-29T04:17:35.521Z,64.3
2022-09-29T04:18:51.797Z,64.7
2022-09-29T04:20:08.102Z,66.9
2022-09-29T04:21:23.421Z,65.6
2022-09-29T04:22:39.713Z,68.1
2022-09-29T04:23:56.006Z,64.2
2022-09-29T04:25:12.297Z,60.8
2022-09-29T04:26:28.598Z,68.9
2022-09-29T04:27:44.876Z,67.4
2022-09-29T04:29:01.174Z,67.2
2022-09-29T04:30:17.473Z,62.9
2022-09-29T04:31:33.704Z,59.8
2022-09-29T04:32:50.005Z,62.4
2022-09-29T04:34:06.310Z,60.6
2022-09-29T04:35:22.565Z,58.6
2022-09-29T04:36:38.802Z,63.4
2022-09-29T04:37:54.048Z,65.9
2022-09-29T04:39:10.295Z,58.6
2022-09-29T04:40:26.543Z,58.9
2022-09-29T04:41:42.770Z,60.8
2022-09-29T04:42:59.010Z,64.2
2022-09-29T04:44:15.255Z,60.1
2022-09-29T04:45:31.493Z,60.7
2022-09-29T04:46:47.725Z,60.4
2022-09-29T04:48:03.976Z,58
2022-09-29T04:49:20.218Z,59.2
2022-09-29T04:50:36.448Z,55.1
2022-09-29T04:51:52.698Z,60.6
2022-09-29T04:53:08.933Z,60
2022-09-29T04:54:24.185Z,59
2022-09-29T04:55:40.435Z,60
2022-09-29T04:56:56.667Z,60.5
2022-09-29T04:58:12.912Z,58.9
2022-09-29T04:59:29.148Z,58.6
2022-09-29T05:00:44.413Z,60.4
2022-09-29T05:02:00.651Z,63.1
2022-09-29T05:03:16.887Z,62.5
2022-09-29T05:04:33.124Z,62.6
2022-09-29T05:05:49.375Z,65.6
2022-09-29T05:07:05.619Z,60
2022-09-29T05:08:21.858Z,59.6
2022-09-29T05:09:38.106Z,62
2022-09-29T05:10:54.335Z,63.9
2022-09-29T05:12:10.568Z,61
2022-09-29T05:13:26.808Z,67.5
2022-09-29T05:14:43.050Z,65.8
2022-09-29T05:15:59.308Z,60.8
2022-09-29T05:17:14.549Z,56.6
2022-09-29T05:18:30.801Z,64.5
2022-09-29T05:19:47.027Z,58.9
2022-09-29T05:22:19.510Z,64.7
2022-09-29T05:23:35.752Z,73.8
2022-09-29T05:24:51.989Z,71.5
2022-09-29T05:26:08.244Z,63.9
2022-09-29T05:27:24.474Z,68
2022-09-29T05:28:40.722Z,64.9
2022-09-29T05:31:13.212Z,66.1
2022-09-29T05:32:29.448Z,64.9
2022-09-29T05:33:44.696Z,67.7
2022-09-29T05:35:00.951Z,66.8
2022-09-29T05:36:17.185Z,64.1
2022-09-29T05:38:49.662Z,63.9
2022-09-29T05:40:04.927Z,64.1
2022-09-29T05:41:20.171Z,63.6
2022-09-29T05:42:36.427Z,71.4
2022-09-29T05:43:52.660Z,64
2022-09-29T05:45:08.898Z,60.6
2022-09-29T05:46:25.141Z,66.6
2022-09-29T05:47:41.381Z,62.2
2022-09-29T05:48:57.621Z,62
2022-09-29T05:50:13.861Z,64.5
2022-09-29T05:51:30.102Z,63.3
2022-09-29T05:52:46.355Z,65.8
2022-09-29T05:54:01.612Z,64.1
2022-09-29T05:55:16.870Z,62
2022-09-29T05:56:33.105Z,65.5
2022-09-29T05:57:49.347Z,64.3
2022-09-29T05:59:05.579Z,66.2
2022-09-29T06:00:21.819Z,63
2022-09-29T06:01:38.058Z,63.4
2022-09-29T06:02:54.310Z,61.7
2022-09-29T06:04:10.553Z,66.6
2022-09-29T06:05:26.795Z,60.9
2022-09-29T06:06:43.036Z,64.1
2022-09-29T06:07:59.280Z,62.4
2022-09-29T06:09:15.509Z,62.7
2022-09-29T06:10:31.749Z,62.3
2022-09-29T06:11:47.011Z,65.9
2022-09-29T06:14:19.495Z,62.1
2022-09-29T06:15:35.737Z,64
2022-09-29T06:16:51.966Z,66.5
2022-09-29T06:18:08.203Z,58.3
2022-09-29T06:19:24.442Z,62.6
2022-09-29T06:20:40.686Z,56.2
2022-09-29T06:21:56.937Z,61.3
2022-09-29T06:23:13.181Z,59.5
2022-09-29T06:24:29.418Z,60.7
2022-09-29T06:25:45.645Z,58.6
2022-09-29T06:27:01.901Z,59
2022-09-29T06:28:17.156Z,59.5
2022-09-29T06:29:33.390Z,55.2
2022-09-29T06:32:05.882Z,57.7
2022-09-29T06:33:22.109Z,56.9
2022-09-29T06:34:38.354Z,54.3
2022-09-29T06:35:54.594Z,57.7
2022-09-29T06:38:27.069Z,58.1
2022-09-29T06:39:43.309Z,56.6
2022-09-29T06:40:58.574Z,57.3
2022-09-29T06:42:13.842Z,54.1
2022-09-29T06:43:30.069Z,56
2022-09-29T06:44:46.312Z,53.6
2022-09-29T06:46:02.558Z,53.5
2022-09-29T06:47:18.805Z,53.3
2022-09-29T06:48:35.033Z,49.2
2022-09-29T06:51:07.508Z,46.7
2022-09-29T06:52:23.754Z,49.2
2022-09-29T06:53:39.996Z,48.5
2022-09-29T06:54:56.238Z,45.6
2022-09-29T06:56:12.485Z,44.4
2022-09-29T06:57:28.717Z,46
2022-09-29T06:58:43.983Z,44.3
2022-09-29T07:00:00.221Z,45.7
2022-09-29T07:01:16.449Z,48.4
2022-09-29T07:02:32.692Z,50.3
2022-09-29T07:03:48.930Z,47.9
2022-09-29T07:05:05.170Z,52.2
2022-09-29T07:06:21.424Z,49.6
2022-09-29T07:07:37.658Z,44
2022-09-29T07:10:09.168Z,42.4
2022-09-29T07:11:24.410Z,40.4
2022-09-29T07:12:40.650Z,39.8
2022-09-29T07:13:56.908Z,39
2022-09-29T07:15:13.132Z,35.8
2022-09-29T07:16:29.377Z,37.3
2022-09-29T07:17:44.635Z,34.4
2022-09-29T07:18:59.896Z,34
2022-09-29T07:20:16.146Z,33.8
2022-09-29T07:21:32.375Z,33.1
2022-09-29T07:22:48.611Z,34.4
2022-09-29T07:24:04.870Z,33.9
2022-09-29T07:25:21.099Z,34.8
2022-09-29T07:26:37.331Z,34.1
2022-09-29T07:27:53.574Z,34.5
2022-09-29T07:29:09.817Z,36.2
2022-09-29T07:30:26.053Z,37.4
2022-09-29T07:31:42.293Z,32.8
2022-09-29T07:32:58.552Z,30.8
2022-09-29T07:34:14.773Z,30.8
2022-09-29T07:35:30.036Z,32
2022-09-29T07:36:46.278Z,30.2
2022-09-29T07:38:02.510Z,30.9
2022-09-29T07:39:18.758Z,32.7
2022-09-29T07:40:35.009Z,29.4
2022-09-29T07:41:51.240Z,32.3
2022-09-29T07:43:07.480Z,27.6
2022-09-29T07:44:23.724Z,31.7
2022-09-29T07:45:39.963Z,35.5
2022-09-29T07:46:56.196Z,32.1
2022-09-29T07:48:12.445Z,30.8
2022-09-29T07:49:28.689Z,27.9
2022-09-29T07:50:44.933Z,25.6
2022-09-29T07:52:00.188Z,24.6
2022-09-29T07:53:16.416Z,21.7
2022-09-29T07:54:32.662Z,21.6
2022-09-29T07:55:48.000Z,22.9
2022-09-29T07:57:05.139Z,22.5
2022-09-29T07:58:21.373Z,19.5
2022-09-29T07:59:37.629Z,21.3
2022-09-29T08:00:53.857Z,19.8
2022-09-29T08:03:26.349Z,21.3
2022-09-29T08:04:42.576Z,21.6
2022-09-29T08:05:58.822Z,21
2022-09-29T08:07:15.066Z,18.2
2022-09-29T08:08:31.296Z,17.5
2022-09-29T08:09:46.560Z,17.7
2022-09-29T08:11:02.811Z,17.5
2022-09-29T08:12:19.039Z,20.3
2022-09-29T08:13:35.276Z,22.2
2022-09-29T08:14:51.513Z,21.6
2022-09-29T08:16:07.755Z,22.4
2022-09-29T08:18:40.240Z,21
2022-09-29T08:19:56.474Z,19.1
2022-09-29T08:21:12.713Z,19.8
2022-09-29T08:22:28.973Z,19.9
2022-09-29T08:23:45.195Z,21.1
2022-09-29T08:25:01.438Z,19.6
2022-09-29T08:26:16.696Z,19.7
2022-09-29T08:27:32.937Z,18
2022-09-29T08:28:49.182Z,18.4
2022-09-29T08:30:05.417Z,18.2
2022-09-29T08:31:21.672Z,16.2
2022-09-29T08:33:54.133Z,16.7
2022-09-29T08:35:10.373Z,16.3
2022-09-29T08:36:26.622Z,16.5
2022-09-29T08:37:42.856Z,16
2022-09-29T08:38:59.109Z,16.7
2022-09-29T08:40:15.341Z,15.6
2022-09-29T08:41:31.575Z,16
2022-09-29T08:42:46.838Z,16.6
2022-09-29T08:44:03.089Z,16
2022-09-29T08:45:19.329Z,15.4
2022-09-29T08:46:35.555Z,14.7
2022-09-29T08:47:51.794Z,16.7
2022-09-29T08:49:08.048Z,15.8
2022-09-29T08:50:24.288Z,15.1
2022-09-29T08:51:40.530Z,14.6
2022-09-29T08:52:56.760Z,15.1
2022-09-29T08:54:13.009Z,15.9
2022-09-29T08:56:45.479Z,16.4
2022-09-29T08:58:01.727Z,14.3
2022-09-29T08:59:16.973Z,14.5
2022-09-29T09:00:33.214Z,15.9
2022-09-29T09:01:49.456Z,15.3
2022-09-29T09:03:05.709Z,13.5
2022-09-29T09:04:21.939Z,15.2
2022-09-29T09:05:38.181Z,13.5
2022-09-29T09:06:54.430Z,13.2
2022-09-29T09:08:10.657Z,13
2022-09-29T09:09:26.903Z,13.6
2022-09-29T09:10:43.151Z,12.9
2022-09-29T09:11:59.388Z,13.2
2022-09-29T09:14:31.872Z,13.2
2022-09-29T09:15:48.101Z,14.2
2022-09-29T09:17:04.349Z,13.6
2022-09-29T09:19:35.845Z,13.7
2022-09-29T09:20:51.126Z,14.7
2022-09-29T09:22:06.374Z,14.9
2022-09-29T09:24:38.857Z,13.4
2022-09-29T09:25:55.102Z,12.3
2022-09-29T09:27:11.340Z,11.7
2022-09-29T09:28:27.581Z,10.8
2022-09-29T09:31:00.065Z,11.8
2022-09-29T09:32:16.304Z,11.1
2022-09-29T09:34:48.771Z,11.9
2022-09-29T09:36:05.022Z,11.8
2022-09-29T09:37:21.259Z,13.1
2022-09-29T09:38:36.517Z,11.7
2022-09-29T09:39:51.768Z,12.6
2022-09-29T09:42:24.258Z,10.9
2022-09-29T09:43:40.496Z,12
2022-09-29T09:44:56.735Z,11
2022-09-29T09:47:29.218Z,10.7
2022-09-29T09:51:17.933Z,11.9
2022-09-29T09:52:34.186Z,10.6
2022-09-29T09:53:50.413Z,11.2
2022-09-29T09:55:06.657Z,11.8
2022-09-29T09:56:21.908Z,11.6
2022-09-29T09:57:38.146Z,11.8
2022-09-29T09:58:54.388Z,11.4
2022-09-29T10:00:10.632Z,12.2
2022-09-29T10:01:26.873Z,11.2
2022-09-29T10:02:43.110Z,11.4
2022-09-29T10:05:15.596Z,9.2
2022-09-29T10:06:31.830Z,10.8
2022-09-29T10:07:48.078Z,8.5
2022-09-29T10:09:04.306Z,9.4
2022-09-29T10:10:20.548Z,8.8
2022-09-29T10:12:53.046Z,9.3
2022-09-29T10:14:09.266Z,7.7
2022-09-29T10:15:24.534Z,6.8
2022-09-29T10:16:40.763Z,6.9
2022-09-29T10:17:57.018Z,7.2
2022-09-29T10:20:29.493Z,6.5
2022-09-29T10:21:45.725Z,6.2
2022-09-29T10:23:01.966Z,6.7
2022-09-29T10:24:18.223Z,6
2022-09-29T10:25:34.454Z,5.4
2022-09-29T10:28:06.934Z,5.7
2022-09-29T10:29:23.171Z,6.5
2022-09-29T10:30:39.414Z,6.4
2022-09-29T10:31:54.679Z,7.3
2022-09-29T10:33:10.912Z,8.8
2022-09-29T10:35:43.385Z,8
2022-09-29T10:36:59.633Z,8.3
2022-09-29T10:38:15.872Z,7.7
2022-09-29T10:39:32.125Z,7.9
2022-09-29T10:40:48.362Z,8.5
2022-09-29T10:42:04.585Z,8.3
2022-09-29T10:43:20.829Z,8.5
2022-09-29T10:44:37.082Z,7.7
2022-09-29T10:47:09.555Z,8.3
2022-09-29T10:48:25.793Z,8.4
2022-09-29T10:49:41.052Z,8.3
2022-09-29T10:50:57.297Z,8.4
2022-09-29T10:52:13.537Z,9
2022-09-29T10:53:29.774Z,8.6
2022-09-29T10:54:46.021Z,9.1
2022-09-29T10:56:02.254Z,9.1
2022-09-29T10:57:18.487Z,8.5
2022-09-29T10:58:34.725Z,8.6
2022-09-29T10:59:50.976Z,9.1
2022-09-29T11:01:07.218Z,9.4
2022-09-29T11:02:22.476Z,9.6
2022-09-29T11:03:37.728Z,8.9
2022-09-29T11:04:53.971Z,9
2022-09-29T11:06:10.215Z,9.8
2022-09-29T11:07:26.443Z,9
2022-09-29T11:08:42.698Z,8.7
2022-09-29T11:09:58.932Z,8.5
2022-09-29T11:11:15.182Z,9.9
2022-09-29T11:12:31.423Z,9.3
2022-09-29T11:13:47.647Z,9.9
2022-09-29T11:15:03.890Z,9.8
2022-09-29T11:16:19.161Z,8.9
2022-09-29T11:17:34.412Z,9.2
2022-09-29T11:18:50.649Z,8.4
2022-09-29T11:20:06.898Z,8.9
2022-09-29T11:21:23.124Z,10.5
2022-09-29T11:22:39.369Z,9.9
2022-09-29T11:23:55.619Z,10.3
2022-09-29T11:25:11.865Z,9.8
2022-09-29T11:26:28.085Z,8.9
2022-09-29T11:29:00.576Z,9.2
2022-09-29T11:30:16.824Z,10.7
2022-09-29T11:31:33.051Z,9.7
2022-09-29T11:32:49.300Z,11.4
2022-09-29T11:34:04.555Z,10.1
2022-09-29T11:36:37.032Z,9.3
2022-09-29T11:37:52.304Z,9.3
2022-09-29T11:39:07.552Z,9.7
2022-09-29T11:40:23.784Z,10.4
2022-09-29T11:41:40.020Z,8.7
2022-09-29T11:44:12.505Z,9.8
2022-09-29T11:45:28.745Z,9.7
2022-09-29T11:46:44.996Z,9
2022-09-29T11:48:01.236Z,9.8
2022-09-29T11:49:17.476Z,9.1
2022-09-29T11:51:49.952Z,8.8
2022-09-29T11:54:22.428Z,8.8
2022-09-29T11:55:37.693Z,9.9
2022-09-29T11:56:52.955Z,10.1
2022-09-29T11:59:25.435Z,10.4
2022-09-29T12:00:41.666Z,8
2022-09-29T12:01:57.917Z,8.6
2022-09-29T12:03:14.152Z,8.5
2022-09-29T12:04:30.381Z,9.7
2022-09-29T12:07:02.870Z,8.5
2022-09-29T12:08:19.106Z,9.6
2022-09-29T12:09:35.355Z,8.6
2022-09-29T12:10:51.579Z,8.5
2022-09-29T12:12:07.826Z,8.5
2022-09-29T12:14:39.325Z,8.1
2022-09-29T12:15:55.565Z,7.6
2022-09-29T12:17:11.807Z,9.1
2022-09-29T12:19:44.272Z,8
2022-09-29T12:22:16.754Z,7.7
2022-09-29T12:23:33.002Z,7.2
2022-09-29T12:24:49.231Z,9
2022-09-29T12:26:05.487Z,7.6
2022-09-29T12:27:21.726Z,7.8
2022-09-29T12:29:54.199Z,7.4
2022-09-29T12:31:09.457Z,7.9
2022-09-29T12:32:25.686Z,7.5
2022-09-29T12:33:41.940Z,8.3
2022-09-29T12:34:58.167Z,9
2022-09-29T12:37:30.665Z,8.1
2022-09-29T12:38:46.885Z,8.1
2022-09-29T12:40:03.141Z,7.9
2022-09-29T12:41:19.375Z,8.1
2022-09-29T12:42:35.624Z,7.3
2022-09-29T12:45:08.087Z,7.4
2022-09-29T12:46:24.337Z,7.7
2022-09-29T12:47:39.599Z,7.9
2022-09-29T12:48:55.829Z,8.8
2022-09-29T12:50:12.059Z,8
2022-09-29T12:51:28.306Z,8
2022-09-29T12:52:44.551Z,7.3
2022-09-29T12:54:00.793Z,7.9
2022-09-29T12:56:33.261Z,7.9
2022-09-29T12:57:49.499Z,7.9
2022-09-29T13:00:21.989Z,7.3
2022-09-29T13:01:38.222Z,8
2022-09-29T13:02:54.469Z,8.3
2022-09-29T13:04:09.732Z,8.8
2022-09-29T13:05:25.954Z,7.5
2022-09-29T13:07:58.444Z,7.5
2022-09-29T13:09:14.672Z,7.7
2022-09-29T13:10:30.911Z,8.8
2022-09-29T13:11:47.151Z,6.9
2022-09-29T13:13:03.394Z,7.4
2022-09-29T13:15:35.890Z,8.4
2022-09-29T13:18:08.353Z,7.1
2022-09-29T13:19:24.599Z,7
2022-09-29T13:20:39.851Z,6.9
2022-09-29T13:23:12.336Z,7.1
2022-09-29T13:24:28.584Z,7.9
2022-09-29T13:25:44.816Z,7.4
2022-09-29T13:27:01.058Z,8.1
2022-09-29T13:28:17.283Z,7.3
2022-09-29T13:30:49.775Z,6.7
2022-09-29T13:32:06.018Z,6.9
2022-09-29T13:33:22.244Z,7.7
2022-09-29T13:34:38.495Z,7.5
2022-09-29T13:35:53.745Z,7.2
2022-09-29T13:38:26.231Z,6.8
2022-09-29T13:39:42.466Z,7
2022-09-29T13:40:58.713Z,8
2022-09-29T13:42:14.965Z,6.6
2022-09-29T13:43:31.189Z,7.1
2022-09-29T13:46:03.676Z,11
2022-09-29T13:47:19.922Z,7
2022-09-29T13:48:36.152Z,6.9
2022-09-29T13:49:52.391Z,7.8
2022-09-29T13:51:08.628Z,6.3
2022-09-29T13:53:40.124Z,6.9
2022-09-29T13:54:56.366Z,6.9
2022-09-29T13:56:12.608Z,10.2
2022-09-29T13:57:28.851Z,7.3
2022-09-29T13:58:45.093Z,6.4
2022-09-29T14:01:17.566Z,7.6
2022-09-29T14:02:33.803Z,7.2
2022-09-29T14:03:50.055Z,7
2022-09-29T14:05:06.281Z,6.4
2022-09-29T14:06:22.517Z,6.5
2022-09-29T14:07:38.775Z,7.6
2022-09-29T14:08:55.002Z,6.7
2022-09-29T14:10:10.256Z,6.4
2022-09-29T14:11:26.506Z,6.2
2022-09-29T14:12:42.747Z,5.7
2022-09-29T14:13:58.983Z,7
2022-09-29T14:16:31.460Z,7.1
2022-09-29T14:19:03.937Z,5.7
2022-09-29T14:20:20.179Z,6.1
2022-09-29T14:21:36.420Z,5.7
2022-09-29T14:24:08.889Z,5.9
2022-09-29T14:25:25.138Z,5.9
2022-09-29T14:26:40.400Z,7.2
2022-09-29T14:27:56.637Z,6.5
2022-09-29T14:29:12.868Z,7
2022-09-29T14:31:45.352Z,6.1
2022-09-29T14:33:01.589Z,7
2022-09-29T14:34:17.841Z,5.5
2022-09-29T14:35:34.075Z,6.7
2022-09-29T14:36:50.321Z,5.9
2022-09-29T14:39:22.781Z,6.9
2022-09-29T14:40:39.030Z,6.5
2022-09-29T14:41:55.271Z,6.8
2022-09-29T14:43:10.534Z,5.9
2022-09-29T14:44:26.760Z,7
2022-09-29T14:46:59.247Z,6.4
2022-09-29T14:48:15.484Z,6.9
2022-09-29T14:49:31.726Z,6.5
2022-09-29T14:50:47.962Z,8
2022-09-29T14:52:04.206Z,6.9
2022-09-29T14:54:36.673Z,5.9
2022-09-29T14:55:52.931Z,7.2
2022-09-29T14:57:09.157Z,7.7
2022-09-29T14:58:25.397Z,7.1
2022-09-29T14:59:40.649Z,6.6
2022-09-29T15:00:56.893Z,6.6
2022-09-29T15:02:13.137Z,8.1
2022-09-29T15:04:45.610Z,7.1
2022-09-29T15:06:01.861Z,6.8
2022-09-29T15:07:18.088Z,6.6
2022-09-29T15:09:50.574Z,6.4
2022-09-29T15:11:06.808Z,7.2
2022-09-29T15:12:23.056Z,6.1
2022-09-29T15:13:39.301Z,7.9
2022-09-29T15:14:55.538Z,7.9
2022-09-29T15:17:27.039Z,6.5
2022-09-29T15:18:43.262Z,7.1
2022-09-29T15:19:59.510Z,7.6
2022-09-29T15:21:15.755Z,7.6
2022-09-29T15:22:31.984Z,5.8
2022-09-29T15:23:48.229Z,6.9
2022-09-29T15:25:04.462Z,6.8
2022-09-29T15:26:20.712Z,6.5
2022-09-29T15:27:36.950Z,6
2022-09-29T15:28:53.185Z,6.3
2022-09-29T15:30:09.429Z,6.8
2022-09-29T15:32:41.901Z,6.4
2022-09-29T15:33:57.154Z,6.7
2022-09-29T15:35:13.402Z,7.9
2022-09-29T15:36:29.657Z,6.9
2022-09-29T15:37:45.878Z,5.5
2022-09-29T15:40:18.355Z,7.8
2022-09-29T15:41:34.611Z,7.1
2022-09-29T15:42:50.845Z,7.1
2022-09-29T15:44:07.084Z,6.2
2022-09-29T15:45:23.320Z,6.5
2022-09-29T15:47:55.801Z,6.9
2022-09-29T15:49:12.037Z,8.3
2022-09-29T15:50:27.302Z,6.4
2022-09-29T15:51:43.533Z,6.4
2022-09-29T15:52:59.778Z,6.4
2022-09-29T15:54:16.010Z,6.3
2022-09-29T15:55:32.258Z,5.7
2022-09-29T15:56:48.506Z,6.2
2022-09-29T15:58:04.747Z,6.9
2022-09-29T15:59:20.975Z,6.4
2022-09-29T16:00:37.213Z,7.2
2022-09-29T16:03:09.699Z,7.6
2022-09-29T16:04:25.933Z,6.7
2022-09-29T16:05:42.176Z,7.1
2022-09-29T16:06:57.429Z,6.4
2022-09-29T16:08:13.677Z,7.6
2022-09-29T16:10:46.159Z,6.7
2022-09-29T16:12:02.389Z,6.4
2022-09-29T16:13:18.620Z,6
2022-09-29T16:14:34.875Z,7.2
2022-09-29T16:15:51.112Z,7.7
2022-09-29T16:18:23.592Z,8.3
2022-09-29T16:19:39.831Z,7.2
2022-09-29T16:20:56.079Z,6.9
2022-09-29T16:22:12.303Z,6.9
2022-09-29T16:23:27.563Z,7.2
2022-09-29T16:26:00.048Z,7.5
2022-09-29T16:27:16.289Z,8.6
2022-09-29T16:28:32.534Z,7.4
2022-09-29T16:29:48.775Z,7.9
2022-09-29T16:31:05.010Z,8.5
2022-09-29T16:33:37.497Z,7.5
2022-09-29T16:34:53.718Z,7.5
2022-09-29T16:36:09.964Z,7.5
2022-09-29T16:37:26.205Z,8.6
2022-09-29T16:38:42.445Z,10.1
2022-09-29T16:41:13.951Z,11.5
2022-09-29T16:42:30.184Z,10.7
2022-09-29T16:43:46.426Z,10.5
2022-09-29T16:45:02.659Z,9.5
2022-09-29T16:46:18.900Z,9.5
2022-09-29T16:48:51.377Z,9.8
2022-09-29T16:50:07.625Z,12.4
2022-09-29T16:51:23.866Z,10.7
2022-09-29T16:52:40.099Z,11.1
2022-09-29T16:53:56.354Z,10.3
2022-09-29T16:55:12.581Z,11.6
2022-09-29T16:56:28.819Z,11.7
2022-09-29T16:57:44.085Z,11.2
2022-09-29T16:59:00.333Z,11
2022-09-29T17:00:16.573Z,10.7
2022-09-29T17:01:32.809Z,10.6
2022-09-29T17:04:05.283Z,11.3
2022-09-29T17:05:21.527Z,11
2022-09-29T17:06:37.758Z,11.6
2022-09-29T17:07:54.004Z,11.7
2022-09-29T17:09:10.242Z,11.2
2022-09-29T17:11:42.721Z,11.2
2022-09-29T17:12:58.977Z,11.8
2022-09-29T17:14:14.221Z,11.8
2022-09-29T17:15:30.470Z,11.7
2022-09-29T17:16:46.708Z,12.5
2022-09-29T17:18:02.935Z,12.5
2022-09-29T17:19:19.185Z,11.6
2022-09-29T17:20:35.419Z,13.1
2022-09-29T17:21:51.675Z,9.7
2022-09-29T17:23:07.904Z,9
2022-09-29T17:24:24.200Z,9.1
2022-09-29T17:26:56.779Z,10.3
2022-09-29T17:28:13.093Z,10.9
2022-09-29T17:29:29.370Z,9.7
2022-09-29T17:30:44.677Z,7.9
2022-09-29T17:32:00.979Z,9.1
2022-09-29T17:33:17.279Z,10.5
2022-09-29T17:34:33.569Z,9.7
2022-09-29T17:35:49.866Z,10.8
2022-09-29T17:37:06.150Z,9.2
2022-09-29T17:38:21.479Z,9.9
2022-09-29T17:39:36.779Z,9.5
2022-09-29T17:42:09.382Z,9.1
2022-09-29T17:43:25.657Z,8.9
2022-09-29T17:44:41.961Z,10.3
2022-09-29T17:45:58.250Z,9.4
2022-09-29T17:47:14.549Z,10
2022-09-29T17:48:30.839Z,8.8
2022-09-29T17:49:47.134Z,9.7
2022-09-29T17:51:02.462Z,9.7
2022-09-29T17:52:18.758Z,9.2
2022-09-29T17:53:35.051Z,11.7
2022-09-29T17:54:51.334Z,8.6
2022-09-29T17:56:07.631Z,8.7
2022-09-29T17:57:23.934Z,9.6
2022-09-29T17:58:40.222Z,19.4
2022-09-29T17:59:56.512Z,10.2
2022-09-29T18:01:12.812Z,10.6
2022-09-29T18:02:29.103Z,9.3
2022-09-29T18:03:45.388Z,10.3
2022-09-29T18:05:01.692Z,17.2
2022-09-29T18:06:17.015Z,11
2022-09-29T18:07:32.316Z,10
2022-09-29T18:08:48.610Z,9.8
2022-09-29T18:10:04.896Z,9.8
2022-09-29T18:12:37.491Z,9.3
2022-09-29T18:13:53.784Z,10.4
2022-09-29T18:15:10.086Z,8.8
2022-09-29T18:16:26.382Z,9.5
2022-09-29T18:17:42.662Z,8.9
2022-09-29T18:18:58.967Z,8.6
2022-09-29T18:20:15.255Z,9
2022-09-29T18:21:31.551Z,8.5
2022-09-29T18:22:47.840Z,9.4
2022-09-29T18:24:03.157Z,9
2022-09-29T18:25:19.464Z,8.1
2022-09-29T18:26:35.750Z,8.5
2022-09-29T18:27:52.036Z,7.8
2022-09-29T18:29:08.329Z,8.5
2022-09-29T18:30:24.632Z,8.2
2022-09-29T18:31:40.924Z,7.9
2022-09-29T18:32:57.214Z,8.1
2022-09-29T18:34:13.516Z,8.5
2022-09-29T18:35:29.799Z,7.9
2022-09-29T18:36:46.095Z,9
2022-09-29T18:38:02.392Z,9.2
2022-09-29T18:39:18.691Z,8.4
2022-09-29T18:40:33.989Z,8.6
2022-09-29T18:41:50.287Z,8
2022-09-29T18:43:06.580Z,8.5
2022-09-29T18:44:22.879Z,7.9
2022-09-29T18:45:39.185Z,9.5
2022-09-29T18:46:55.475Z,9.1
2022-09-29T18:48:11.765Z,8.7
2022-09-29T18:50:44.358Z,8.8
2022-09-29T18:52:00.644Z,9.1
2022-09-29T18:53:16.946Z,7.8
2022-09-29T18:54:33.233Z,8.4
2022-09-29T18:55:49.537Z,8.5
2022-09-29T18:57:04.830Z,8.5
2022-09-29T18:58:21.140Z,9.6
2022-09-29T18:59:37.433Z,8.3
2022-09-29T19:00:53.714Z,9.2
2022-09-29T19:02:10.013Z,9.1
2022-09-29T19:03:26.302Z,8.9